createdAt,value
2022-09-28T00:02:14.217Z,0.50
2022-09-28T00:04:40.886Z,0.40
2022-09-28T00:07:08.297Z,0.30
2022-09-28T00:09:34.965Z,0.50
2022-09-28T00:12:01.813Z,0.40
2022-09-28T00:14:28.426Z,0.35
2022-09-28T00:16:55.044Z,0.50
2022-09-28T00:19:21.705Z,0.52
2022-09-28T00:21:48.411Z,0.40
2022-09-28T00:24:27.473Z,0.82
2022-09-28T00:26:57.232Z,0.43
2022-09-28T00:29:35.453Z,0.40
2022-09-28T00:32:10.353Z,0.38
2022-09-28T00:34:42.472Z,0.50
2022-09-28T00:37:10.129Z,0.50
2022-09-28T00:39:38.471Z,0.40
2022-09-28T00:42:21.218Z,0.40
2022-09-28T00:44:51.340Z,0.32
2022-09-28T00:47:26.525Z,0.40
2022-09-28T00:50:02.097Z,0.30
2022-09-28T00:52:38.782Z,0.40
2022-09-28T00:55:10.028Z,0.60
2022-09-28T00:57:39.809Z,0.40
2022-09-28T01:00:07.599Z,0.40
2022-09-28T01:02:34.351Z,0.30
2022-09-28T01:05:01.980Z,0.60
2022-09-28T01:07:29.419Z,0.30
2022-09-28T01:09:56.464Z,0.40
2022-09-28T01:12:23.210Z,0.40
2022-09-28T01:14:51.527Z,0.50
2022-09-28T01:17:25.733Z,0.50
2022-09-28T01:20:19.495Z,0.40
2022-09-28T01:23:14.267Z,0.47
2022-09-28T01:26:08.718Z,0.40
2022-09-28T01:28:35.894Z,0.40
2022-09-28T01:31:18.092Z,0.50
2022-09-28T01:33:54.329Z,0.30
2022-09-28T01:36:34.854Z,0.50
2022-09-28T01:39:08.153Z,0.28
2022-09-28T01:41:40.397Z,0.50
2022-09-28T01:44:12.116Z,0.30
2022-09-28T01:46:44.626Z,0.40
2022-09-28T01:49:16.822Z,0.50
2022-09-28T01:51:51.789Z,0.50
2022-09-28T01:54:48.336Z,0.50
2022-09-28T01:57:35.959Z,0.50
2022-09-28T02:00:09.001Z,0.40
2022-09-28T02:02:41.914Z,0.80
2022-09-28T02:05:18.606Z,0.60
2022-09-28T02:07:51.486Z,0.40
2022-09-28T02:10:31.097Z,0.40
2022-09-28T02:13:20.993Z,0.60
2022-09-28T02:15:50.503Z,0.50
2022-09-28T02:18:17.498Z,0.80
2022-09-28T02:20:56.317Z,0.32
2022-09-28T02:23:25.619Z,0.50
2022-09-28T02:26:06.732Z,0.45
2022-09-28T02:28:33.520Z,0.38
2022-09-28T02:31:00.921Z,0.52
2022-09-28T02:33:38.269Z,0.28
2022-09-28T02:36:05.560Z,0.40
2022-09-28T02:38:32.591Z,0.38
2022-09-28T02:41:07.289Z,0.50
2022-09-28T02:43:47.683Z,0.40
2022-09-28T02:46:34.178Z,0.60
2022-09-28T02:49:21.657Z,0.40
2022-09-28T02:52:32.601Z,0.38
2022-09-28T02:55:17.186Z,0.50
2022-09-28T02:57:47.003Z,0.47
2022-09-28T03:00:23.991Z,0.50
2022-09-28T03:03:22.261Z,0.45
2022-09-28T03:06:11.841Z,0.80
2022-09-28T03:08:43.146Z,0.70
2022-09-28T03:11:16.724Z,0.63
2022-09-28T03:13:44.530Z,0.47
2022-09-28T03:16:18.844Z,0.68
2022-09-28T03:18:46.264Z,0.63
2022-09-28T03:21:14.333Z,0.52
2022-09-28T03:23:41.648Z,0.50
2022-09-28T03:26:11.013Z,0.60
2022-09-28T03:28:37.677Z,0.57
2022-09-28T03:31:04.813Z,0.38
2022-09-28T03:33:31.726Z,0.45
2022-09-28T03:35:58.435Z,0.60
2022-09-28T03:38:25.103Z,0.50
2022-09-28T03:40:59.672Z,0.65
2022-09-28T03:43:28.033Z,0.90
2022-09-28T03:45:56.740Z,0.70
2022-09-28T03:48:29.854Z,0.50
2022-09-28T03:51:01.338Z,0.60
2022-09-28T03:53:29.683Z,0.40
2022-09-28T03:55:56.873Z,0.30
2022-09-28T03:58:23.613Z,0.70
2022-09-28T04:00:50.959Z,0.52
2022-09-28T04:03:17.584Z,0.60
2022-09-28T04:05:51.895Z,0.50
2022-09-28T04:08:19.301Z,0.40
2022-09-28T04:10:46.759Z,0.40
2022-09-28T04:13:14.036Z,0.50
2022-09-28T04:15:40.653Z,0.40
2022-09-28T04:18:11.038Z,0.50
2022-09-28T04:20:40.328Z,0.50
2022-09-28T04:23:07.231Z,0.40
2022-09-28T04:25:33.821Z,0.43
2022-09-28T04:28:19.158Z,0.60
2022-09-28T04:30:47.366Z,0.52
2022-09-28T04:33:14.117Z,0.75
2022-09-28T04:35:41.012Z,0.57
2022-09-28T04:38:07.734Z,0.60
2022-09-28T04:40:34.404Z,0.70
2022-09-28T04:43:01.035Z,0.80
2022-09-28T04:45:28.655Z,0.73
2022-09-28T04:47:55.364Z,0.80
2022-09-28T04:50:22.277Z,1.30
2022-09-28T04:52:48.911Z,0.90
2022-09-28T04:55:15.588Z,1.08
2022-09-28T04:57:42.486Z,0.90
2022-09-28T05:00:10.603Z,1.15
2022-09-28T05:02:37.357Z,1.88
2022-09-28T05:05:04.358Z,1.83
2022-09-28T05:07:31.347Z,1.83
2022-09-28T05:09:58.023Z,1.75
2022-09-28T05:12:24.762Z,1.83
2022-09-28T05:14:51.377Z,1.80
2022-09-28T05:17:17.988Z,1.58
2022-09-28T05:19:44.588Z,1.75
2022-09-28T05:22:13.965Z,2.00
2022-09-28T05:24:41.214Z,1.80
2022-09-28T05:27:07.985Z,1.50
2022-09-28T05:29:34.644Z,1.50
2022-09-28T05:32:01.838Z,1.50
2022-09-28T05:34:29.234Z,1.17
2022-09-28T05:36:55.874Z,1.15
2022-09-28T05:39:22.556Z,1.08
2022-09-28T05:41:49.246Z,1.30
2022-09-28T05:44:15.926Z,1.60
2022-09-28T05:46:42.577Z,1.00
2022-09-28T05:49:09.198Z,0.60
2022-09-28T05:51:35.838Z,0.85
2022-09-28T05:54:06.005Z,0.75
2022-09-28T05:56:33.174Z,1.02
2022-09-28T05:58:59.902Z,1.00
2022-09-28T06:01:26.747Z,1.10
2022-09-28T06:03:53.482Z,0.93
2022-09-28T06:06:20.198Z,1.38
2022-09-28T06:08:48.479Z,2.35
2022-09-28T06:11:15.183Z,2.40
2022-09-28T06:13:41.854Z,2.10
2022-09-28T06:16:08.653Z,1.83
2022-09-28T06:18:35.540Z,1.67
2022-09-28T06:21:02.897Z,1.05
2022-09-28T06:23:29.572Z,1.10
2022-09-28T06:25:56.192Z,0.82
2022-09-28T06:28:22.938Z,1.35
2022-09-28T06:30:49.643Z,1.40
2022-09-28T06:33:16.460Z,1.27
2022-09-28T06:35:43.179Z,1.10
2022-09-28T06:38:10.271Z,0.90
2022-09-28T06:40:38.342Z,0.90
2022-09-28T06:43:11.734Z,1.00
2022-09-28T06:45:39.128Z,1.02
2022-09-28T06:48:06.566Z,1.20
2022-09-28T06:50:37.525Z,0.75
2022-09-28T06:53:06.868Z,0.73
2022-09-28T06:55:33.707Z,0.70
2022-09-28T06:58:02.635Z,1.20
2022-09-28T07:00:33.955Z,1.10
2022-09-28T07:03:02.922Z,1.10
2022-09-28T07:05:30.239Z,0.90
2022-09-28T07:07:57.513Z,1.00
2022-09-28T07:10:25.798Z,0.90
2022-09-28T07:12:52.498Z,0.90
2022-09-28T07:15:19.564Z,1.00
2022-09-28T07:17:57.846Z,1.00
2022-09-28T07:20:28.200Z,1.10
2022-09-28T07:23:08.288Z,1.20
2022-09-28T07:25:45.510Z,1.90
2022-09-28T07:28:12.700Z,1.35
2022-09-28T07:30:40.034Z,1.40
2022-09-28T07:33:09.779Z,1.48
2022-09-28T07:35:36.462Z,1.30
2022-09-28T07:38:05.198Z,1.38
2022-09-28T07:40:52.259Z,1.70
2022-09-28T07:43:20.968Z,1.95
2022-09-28T07:45:53.032Z,2.65
2022-09-28T07:48:20.769Z,2.88
2022-09-28T07:50:57.435Z,3.20
2022-09-28T07:53:25.569Z,3.28
2022-09-28T07:55:53.491Z,3.45
2022-09-28T07:58:20.818Z,3.58
2022-09-28T08:00:49.119Z,3.85
2022-09-28T08:03:17.840Z,3.72
2022-09-28T08:05:45.512Z,3.35
2022-09-28T08:08:12.463Z,3.15
2022-09-28T08:10:41.587Z,3.47
2022-09-28T08:13:11.123Z,3.72
2022-09-28T08:15:38.353Z,3.70
2022-09-28T08:18:05.823Z,3.35
2022-09-28T08:20:52.165Z,2.50
2022-09-28T08:23:19.715Z,2.05
2022-09-28T08:25:50.648Z,2.15
2022-09-28T08:28:17.858Z,2.00
2022-09-28T08:30:45.838Z,2.00
2022-09-28T08:33:18.055Z,1.50
2022-09-28T08:35:44.882Z,1.42
2022-09-28T08:38:11.524Z,1.67
2022-09-28T08:40:49.089Z,1.20
2022-09-28T08:43:43.345Z,1.40
2022-09-28T08:46:12.673Z,1.10
2022-09-28T08:49:20.615Z,0.80
2022-09-28T08:52:04.052Z,0.80
2022-09-28T08:54:39.655Z,0.88
2022-09-28T08:57:17.791Z,1.30
2022-09-28T08:59:57.081Z,1.50
2022-09-28T09:02:36.806Z,0.90
2022-09-28T09:05:06.264Z,1.00
2022-09-28T09:07:44.069Z,1.17
2022-09-28T09:10:21.692Z,0.90
2022-09-28T09:12:48.348Z,1.00
2022-09-28T09:15:33.866Z,0.90
2022-09-28T09:18:09.514Z,0.93
2022-09-28T09:20:51.600Z,1.00
2022-09-28T09:23:47.887Z,1.02
2022-09-28T09:26:23.777Z,0.70
2022-09-28T09:29:09.922Z,1.00
2022-09-28T09:31:55.039Z,0.70
2022-09-28T09:34:49.131Z,0.80
2022-09-28T09:37:25.961Z,1.08
2022-09-28T09:40:03.896Z,1.70
2022-09-28T09:42:57.282Z,1.08
2022-09-28T09:45:35.987Z,1.00
2022-09-28T09:48:07.637Z,1.00
2022-09-28T09:50:43.312Z,1.05
2022-09-28T09:53:18.680Z,1.17
2022-09-28T09:55:48.290Z,0.70
2022-09-28T09:58:21.875Z,1.00
2022-09-28T10:00:52.448Z,0.65
2022-09-28T10:03:34.773Z,0.63
2022-09-28T10:06:13.161Z,0.70
2022-09-28T10:08:56.746Z,1.05
2022-09-28T10:11:31.648Z,0.70
2022-09-28T10:16:25.137Z,1.00
2022-09-28T10:18:51.805Z,1.15
2022-09-28T10:21:21.713Z,1.25
2022-09-28T10:23:54.217Z,1.10
2022-09-28T10:26:27.464Z,1.10
2022-09-28T10:28:55.750Z,1.08
2022-09-28T10:31:42.048Z,1.05
2022-09-28T10:34:14.261Z,1.30
2022-09-28T10:36:58.450Z,1.50
2022-09-28T10:39:36.881Z,1.73
2022-09-28T10:42:08.704Z,1.60
2022-09-28T10:44:49.646Z,2.03
2022-09-28T10:47:19.269Z,2.33
2022-09-28T10:49:49.504Z,1.77
2022-09-28T10:52:32.453Z,1.95
2022-09-28T10:54:59.739Z,2.50
2022-09-28T10:57:35.073Z,2.42
2022-09-28T11:00:03.033Z,3.30
2022-09-28T11:02:36.173Z,3.00
2022-09-28T11:05:06.804Z,3.22
2022-09-28T11:07:44.661Z,3.03
2022-09-28T11:10:21.496Z,3.17
2022-09-28T11:12:50.051Z,3.08
2022-09-28T11:15:19.807Z,2.25
2022-09-28T11:17:46.625Z,2.60
2022-09-28T11:20:27.979Z,2.70
2022-09-28T11:22:57.890Z,2.15
2022-09-28T11:25:28.560Z,2.13
2022-09-28T11:27:57.059Z,2.10
2022-09-28T11:30:51.437Z,2.10
2022-09-28T11:33:46.677Z,2.10
2022-09-28T11:36:13.285Z,1.85
2022-09-28T11:38:59.658Z,2.22
2022-09-28T11:41:31.994Z,2.38
2022-09-28T11:44:23.660Z,2.28
2022-09-28T11:46:59.460Z,2.30
2022-09-28T11:49:46.786Z,2.53
2022-09-28T11:52:27.747Z,2.17
2022-09-28T11:55:00.822Z,2.40
2022-09-28T11:57:36.790Z,2.83
2022-09-28T12:00:22.492Z,2.78
2022-09-28T12:02:55.089Z,2.40
2022-09-28T12:05:24.940Z,2.33
2022-09-28T12:07:57.247Z,2.75
2022-09-28T12:11:00.283Z,2.70
2022-09-28T12:13:31.124Z,2.25
2022-09-28T12:19:07.123Z,2.30
2022-09-28T12:21:41.041Z,1.90
2022-09-28T12:24:32.209Z,1.80
2022-09-28T12:27:05.957Z,2.17
2022-09-28T12:29:41.115Z,2.13
2022-09-28T12:32:44.394Z,2.20
2022-09-28T12:35:18.778Z,1.95
2022-09-28T12:38:08.814Z,2.33
2022-09-28T12:40:54.586Z,2.22
2022-09-28T12:43:25.362Z,2.10
2022-09-28T12:46:13.717Z,2.33
2022-09-28T12:49:04.146Z,2.20
2022-09-28T12:51:44.212Z,2.20
2022-09-28T12:54:51.799Z,2.00
2022-09-28T12:57:37.051Z,2.40
2022-09-28T13:02:42.163Z,2.05
2022-09-28T13:05:36.037Z,2.03
2022-09-28T13:08:17.906Z,1.90
2022-09-28T13:10:44.487Z,2.30
2022-09-28T13:13:29.959Z,2.90
2022-09-28T13:16:04.303Z,2.00
2022-09-28T13:18:58.144Z,2.00
2022-09-28T13:21:34.393Z,1.60
2022-09-28T13:24:27.819Z,1.63
2022-09-28T13:26:54.916Z,1.60
2022-09-28T13:29:23.338Z,2.03
2022-09-28T13:31:59.363Z,1.52
2022-09-28T13:34:28.993Z,1.70
2022-09-28T13:37:17.032Z,1.80
2022-09-28T13:39:46.382Z,1.70
2022-09-28T13:42:34.147Z,1.50
2022-09-28T13:45:19.091Z,1.70
2022-09-28T13:47:51.819Z,1.63
2022-09-28T13:50:32.174Z,1.65
2022-09-28T13:53:43.739Z,1.63
2022-09-28T13:56:49.234Z,1.50
2022-09-28T13:59:30.411Z,2.13
2022-09-28T14:17:19.155Z,1.90
2022-09-28T14:19:53.209Z,1.52
2022-09-28T14:22:54.753Z,1.67
2022-09-28T14:25:31.378Z,1.52
2022-09-28T14:28:29.740Z,1.50
2022-09-28T14:30:58.913Z,1.50
2022-09-28T14:33:30.101Z,1.35
2022-09-28T14:36:02.158Z,1.40
2022-09-28T14:38:53.412Z,1.45
2022-09-28T14:41:36.150Z,1.20
2022-09-28T14:44:09.417Z,1.40
2022-09-28T14:46:46.526Z,1.27
2022-09-28T14:49:23.363Z,1.40
2022-09-28T14:51:58.766Z,1.30
2022-09-28T14:54:29.720Z,1.70
2022-09-28T14:57:28.326Z,1.42
2022-09-28T14:59:58.066Z,1.50
2022-09-28T15:02:30.449Z,1.60
2022-09-28T15:05:07.388Z,1.23
2022-09-28T15:07:52.293Z,1.38
2022-09-28T15:10:35.604Z,1.35
2022-09-28T15:13:18.288Z,1.42
2022-09-28T15:15:50.575Z,1.55
2022-09-28T15:18:17.280Z,1.52
2022-09-28T15:20:48.052Z,1.40
2022-09-28T15:23:34.443Z,1.38
2022-09-28T15:26:02.086Z,1.40
2022-09-28T15:28:28.766Z,2.10
2022-09-28T15:31:03.033Z,1.55
2022-09-28T15:33:52.561Z,1.58
2022-09-28T15:36:25.535Z,1.40
2022-09-28T15:38:59.573Z,1.58
2022-09-28T15:41:28.013Z,1.63
2022-09-28T15:44:12.680Z,1.40
2022-09-28T15:46:42.393Z,1.30
2022-09-28T15:49:24.708Z,1.52
2022-09-28T15:51:56.085Z,1.55
2022-09-28T15:54:32.236Z,1.58
2022-09-28T15:57:02.727Z,1.50
2022-09-28T15:59:38.303Z,1.60
2022-09-28T16:02:31.760Z,1.40
2022-09-28T16:05:01.280Z,1.45
2022-09-28T16:07:38.643Z,1.75
2022-09-28T16:10:11.394Z,1.55
2022-09-28T16:12:37.944Z,1.60
2022-09-28T16:15:12.486Z,1.50
2022-09-28T16:17:39.162Z,1.30
2022-09-28T16:20:23.224Z,1.65
2022-09-28T16:22:50.355Z,1.90
2022-09-28T16:25:23.975Z,1.88
2022-09-28T16:27:55.462Z,1.60
2022-09-28T16:30:25.289Z,1.63
2022-09-28T16:32:59.107Z,1.55
2022-09-28T16:35:40.706Z,1.67
2022-09-28T16:38:15.331Z,1.80
2022-09-28T16:40:46.276Z,1.67
2022-09-28T16:43:27.302Z,1.65
2022-09-28T16:46:05.228Z,1.48
2022-09-28T16:48:35.057Z,1.52
2022-09-28T16:51:01.656Z,1.63
2022-09-28T16:53:47.121Z,1.75
2022-09-28T16:56:13.868Z,2.10
2022-09-28T16:58:42.549Z,1.63
2022-09-28T17:01:11.918Z,2.00
2022-09-28T17:03:39.894Z,3.00
2022-09-28T17:06:06.897Z,2.55
2022-09-28T17:08:35.552Z,3.17
2022-09-28T17:11:24.628Z,3.28
2022-09-28T17:13:56.778Z,2.95
2022-09-28T17:19:25.120Z,2.17
2022-09-28T17:21:52.771Z,2.47
2022-09-28T17:24:20.022Z,2.40
2022-09-28T17:26:49.613Z,2.17
2022-09-28T17:29:16.970Z,2.72
2022-09-28T17:31:45.047Z,2.30
2022-09-28T17:34:15.302Z,2.38
2022-09-28T17:36:43.908Z,2.90
2022-09-28T17:39:15.790Z,2.78
2022-09-28T17:41:42.500Z,2.80
2022-09-28T17:44:09.288Z,2.80
2022-09-28T17:46:46.036Z,2.90
2022-09-28T17:49:13.040Z,2.83
2022-09-28T17:51:39.763Z,2.60
2022-09-28T17:54:08.190Z,2.80
2022-09-28T17:56:35.760Z,2.70
2022-09-28T17:59:08.406Z,2.70
2022-09-28T18:01:39.142Z,2.60
2022-09-28T18:04:08.986Z,2.80
2022-09-28T18:06:37.406Z,2.88
2022-09-28T18:09:05.272Z,2.63
2022-09-28T18:11:33.540Z,2.63
2022-09-28T18:14:00.243Z,2.65
2022-09-28T18:16:28.888Z,2.67
2022-09-28T18:18:56.315Z,2.40
2022-09-28T18:21:23.025Z,2.78
2022-09-28T18:23:49.695Z,2.72
2022-09-28T18:26:19.089Z,2.40
2022-09-28T18:28:46.153Z,2.45
2022-09-28T18:31:15.106Z,2.20
2022-09-28T18:33:41.912Z,2.97
2022-09-28T18:36:08.567Z,2.63
2022-09-28T18:38:36.323Z,2.65
2022-09-28T18:41:10.594Z,2.33
2022-09-28T18:43:37.833Z,2.63
2022-09-28T18:46:10.533Z,2.45
2022-09-28T18:48:44.019Z,2.40
2022-09-28T18:51:12.004Z,2.22
2022-09-28T18:53:39.546Z,2.40
2022-09-28T18:56:11.605Z,2.90
2022-09-28T18:58:39.993Z,2.40
2022-09-28T19:01:31.679Z,2.30
2022-09-28T19:04:00.670Z,2.95
2022-09-28T19:06:27.955Z,2.60
2022-09-28T19:08:55.825Z,2.90
2022-09-28T19:11:23.352Z,2.67
2022-09-28T19:13:50.230Z,2.90
2022-09-28T19:16:24.654Z,3.00
2022-09-28T19:18:52.488Z,2.90
2022-09-28T19:21:19.964Z,2.80
2022-09-28T19:23:49.769Z,2.88
2022-09-28T19:26:20.961Z,2.90
2022-09-28T19:28:48.136Z,2.60
2022-09-28T19:31:15.401Z,3.03
2022-09-28T19:33:42.258Z,2.80
2022-09-28T19:36:11.411Z,2.50
2022-09-28T19:38:39.703Z,3.28
2022-09-28T19:41:11.258Z,2.80
2022-09-28T19:43:38.372Z,2.90
2022-09-28T19:46:06.458Z,3.15
2022-09-28T19:48:34.445Z,3.10
2022-09-28T19:51:03.939Z,4.18
2022-09-28T19:53:33.091Z,3.50
2022-09-28T19:56:03.792Z,3.22
2022-09-28T19:58:34.290Z,3.22
2022-09-28T20:01:05.313Z,3.30
2022-09-28T20:03:32.354Z,3.65
2022-09-28T20:06:00.031Z,3.60
2022-09-28T20:08:26.932Z,3.97
2022-09-28T20:10:56.762Z,3.85
2022-09-28T20:13:29.780Z,3.67
2022-09-28T20:15:56.518Z,3.88
2022-09-28T20:18:23.225Z,3.92
2022-09-28T20:21:01.571Z,3.85
2022-09-28T20:23:28.231Z,3.70
2022-09-28T20:25:54.973Z,3.83
2022-09-28T20:28:21.644Z,3.78
2022-09-28T20:30:48.328Z,3.95
2022-09-28T20:33:22.825Z,4.32
2022-09-28T20:35:56.052Z,4.25
2022-09-28T20:38:23.796Z,4.88
2022-09-28T20:40:50.506Z,4.05
2022-09-28T20:43:17.169Z,4.38
2022-09-28T20:45:44.044Z,4.10
2022-09-28T20:48:10.673Z,3.80
2022-09-28T20:50:37.300Z,3.75
2022-09-28T20:53:04.012Z,4.22
2022-09-28T20:55:30.627Z,4.68
2022-09-28T20:58:03.208Z,4.68
2022-09-28T21:00:30.169Z,5.32
2022-09-28T21:02:56.874Z,4.45
2022-09-28T21:05:23.513Z,4.38
2022-09-28T21:07:50.170Z,4.43
2022-09-28T21:10:16.775Z,4.10
2022-09-28T21:12:48.336Z,4.20
2022-09-28T21:15:15.035Z,4.35
2022-09-28T21:17:41.732Z,4.93
2022-09-28T21:20:08.823Z,5.53
2022-09-28T21:22:35.491Z,4.88
2022-09-28T21:25:02.182Z,4.82
2022-09-28T21:27:28.797Z,5.00
2022-09-28T21:29:55.382Z,5.10
2022-09-28T21:32:23.345Z,5.50
2022-09-28T21:34:50.561Z,4.50
2022-09-28T21:37:17.299Z,4.63
2022-09-28T21:39:44.114Z,5.63
2022-09-28T21:42:10.772Z,5.10
2022-09-28T21:44:37.359Z,4.38
2022-09-28T21:47:04.061Z,5.43
2022-09-28T21:49:30.717Z,5.00
2022-09-28T21:51:57.420Z,5.35
2022-09-28T21:54:24.164Z,4.82
2022-09-28T21:56:50.810Z,4.50
2022-09-28T21:59:17.420Z,4.97
2022-09-28T22:01:44.441Z,5.40
2022-09-28T22:04:11.193Z,5.10
2022-09-28T22:06:37.868Z,5.28
2022-09-28T22:09:05.461Z,4.70
2022-09-28T22:11:32.192Z,4.75
2022-09-28T22:14:00.429Z,5.00
2022-09-28T22:16:30.457Z,4.97
2022-09-28T22:18:57.773Z,5.45
2022-09-28T22:21:30.393Z,5.60
2022-09-28T22:24:02.342Z,5.65
2022-09-28T22:26:30.316Z,6.30
2022-09-28T22:28:59.214Z,5.85
2022-09-28T22:31:31.450Z,5.38
2022-09-28T22:33:58.463Z,5.43
2022-09-28T22:36:26.020Z,5.00
2022-09-28T22:38:54.266Z,4.65
2022-09-28T22:41:21.279Z,5.28
2022-09-28T22:43:49.841Z,5.90
2022-09-28T22:46:19.136Z,4.63
2022-09-28T22:48:54.544Z,4.72
2022-09-28T22:51:22.438Z,4.82
2022-09-28T22:53:49.273Z,4.78
2022-09-28T22:56:18.753Z,5.25
2022-09-28T22:58:46.415Z,5.05
2022-09-28T23:01:19.340Z,5.10
2022-09-28T23:03:46.733Z,5.18
2022-09-28T23:06:16.686Z,4.97
2022-09-28T23:08:45.344Z,4.88
2022-09-28T23:11:12.020Z,5.47
2022-09-28T23:13:38.707Z,5.03
2022-09-28T23:16:07.885Z,4.90
2022-09-28T23:18:37.206Z,4.90
2022-09-28T23:21:10.227Z,5.05
2022-09-28T23:23:37.075Z,4.95
2022-09-28T23:26:18.666Z,5.07
2022-09-28T23:28:46.134Z,4.75
2022-09-28T23:31:16.885Z,4.85
2022-09-28T23:33:43.874Z,4.85
2022-09-28T23:36:10.518Z,5.15
2022-09-28T23:38:37.817Z,5.00
2022-09-28T23:41:04.773Z,4.97
2022-09-28T23:43:31.442Z,4.68
2022-09-28T23:45:58.058Z,4.82
2022-09-28T23:48:24.926Z,5.47
2022-09-28T23:50:51.530Z,4.75
2022-09-28T23:53:18.116Z,4.97
2022-09-28T23:55:45.065Z,4.55
2022-09-28T23:58:12.188Z,4.97
